| Date | Time | Temp. (oF) | Dew Point (oF) | Rel. Hum. (%) | Press. (in.) | Wind Dir. | Wind Speed (mph) | Hourly Rainfall (in.) |
|
|---|---|---|---|---|---|---|---|---|---|
| 1 | 01/31 | 00:00 | 26 | 16 | 68 | 30.21 | NW | 3 | 0.00 |
| 2 | 01/30 | 23:00 | 27 | 16 | 65 | 30.20 | NW | 5 | 0.00 |
| 3 | 01/30 | 22:00 | 27 | 17 | 66 | 30.19 | NW | 5 | 0.00 |
| 4 | 01/30 | 21:00 | 29 | 16 | 60 | 30.18 | NNW | 4 | 0.00 |
| 5 | 01/30 | 20:00 | 30 | 16 | 57 | 30.15 | NW | 4 | 0.00 |
| 6 | 01/30 | 19:00 | 30 | 20 | 66 | 30.12 | NNW | 8 | 0.00 |
| 7 | 01/30 | 18:00 | 31 | 21 | 68 | 30.09 | WNW | 0 | 0.00 |
| 8 | 01/30 | 17:00 | 34 | 22 | 62 | 30.06 | WNW | 4 | 0.00 |
| 9 | 01/30 | 16:00 | 35 | 22 | 61 | 30.06 | WNW | 3 | 0.00 |
| 10 | 01/30 | 15:00 | 34 | 22 | 63 | 30.06 | NNW | 5 | 0.00 |
| 11 | 01/30 | 14:00 | 32 | 22 | 67 | 30.06 | NNW | 7 | 0.00 |
| 12 | 01/30 | 13:00 | 31 | 25 | 79 | 30.08 | NNW | 7 | 0.00 |
| 13 | 01/30 | 12:00 | 29 | 26 | 91 | 30.10 | NNW | 5 | 0.00 |
| 14 | 01/30 | 11:00 | 28 | 27 | 96 | 30.12 | NW | 3 | 0.00 |
| 15 | 01/30 | 10:00 | 27 | 27 | 100 | 30.12 | NW | 3 | 0.00 |
| 16 | miss | miss | miss | miss | miss | miss | miss | miss | |
| 17 | 01/30 | 09:16 | 26 | 26 | 100 | 30.12 | NW | 3 | 0.00 |
| 18 | miss | miss | miss | miss | miss | miss | miss | miss | |
| 19 | 01/30 | 09:14 | 26 | 26 | 100 | 30.12 | NNW | 5 | 0.00 |
| 20 | miss | miss | miss | miss | miss | miss | miss | miss | |
| 21 | 01/30 | 09:12 | 26 | 26 | 100 | 30.12 | NNW | 4 | 0.00 |
| 22 | miss | miss | miss | miss | miss | miss | miss | miss | |
| 23 | 01/30 | 09:10 | 26 | 26 | 100 | 30.12 | NW | 2 | 0.00 |
| 24 | miss | miss | miss | miss | miss | miss | miss | miss | |
| 25 | 01/30 | 09:08 | 26 | 26 | 100 | 30.11 | NW | 2 | 0.00 |
| 26 | miss | miss | miss | miss | miss | miss | miss | miss | |
| 27 | 01/30 | 09:08 | 26 | 26 | 100 | 30.11 | NW | 2 | 0.00 |
| 28 | miss | miss | miss | miss | miss | miss | miss | miss | |
| 29 | 01/30 | 09:08 | 26 | 26 | 100 | 30.11 | NW | 2 | 0.00 |
| 30 | miss | miss | miss | miss | miss | miss | miss | miss | |
| 31 | 01/30 | 09:08 | 26 | 26 | 100 | 30.11 | NW | 2 | 0.00 |
| 32 | miss | miss | miss | miss | miss | miss | miss | miss | |
| 33 | 01/30 | 09:08 | 26 | 26 | 100 | 30.11 | NW | 2 | 0.00 |
| 34 | miss | miss | miss | miss | miss | miss | miss | miss | |
| 35 | 01/30 | 09:08 | 26 | 26 | 100 | 30.11 | NW | 2 | 0.00 |
| 36 | miss | miss | miss | miss | miss | miss | miss | miss | |
| 37 | 01/30 | 09:08 | 26 | 26 | 100 | 30.11 | NW | 2 | 0.00 |
| 38 | miss | miss | miss | miss | miss | miss | miss | miss | |
| 39 | 01/30 | 09:08 | 26 | 26 | 100 | 30.11 | NW | 2 | 0.00 |
| 40 | 01/30 | 09:00 | 26 | 26 | 100 | 30.11 | NW | 2 | 0.00 |
| 41 | 01/30 | 08:00 | 25 | 24 | 100 | 30.11 | N | 0 | 0.01 |
| 42 | 01/30 | 07:00 | 25 | 24 | 100 | 30.11 | NNW | 2 | 0.00 |
| 43 | 01/30 | 06:00 | 25 | 24 | 100 | 30.11 | N | 2 | 0.00 |
| 44 | 01/30 | 05:00 | 25 | 24 | 100 | 30.12 | NNE | 1 | 0.00 |
| 45 | 01/30 | 04:00 | 25 | 24 | 100 | 30.14 | NE | 1 | 0.01 |
| 46 | 01/30 | 03:00 | 25 | 24 | 99 | 30.15 | NE | 3 | 0.00 |
| 47 | 01/30 | 02:00 | 25 | 24 | 98 | 30.17 | NNE | 1 | 0.01 |
| 48 | 01/30 | 01:00 | 25 | 24 | 96 | 30.18 | ENE | 1 | 0.01 |
| 49 | 01/30 | 00:00 | 25 | 23 | 94 | 30.21 | SSE | 0 | -0.04 |
| 50 | 01/29 | 23:00 | 25 | 22 | 91 | 30.24 | SSW | 1 | 0.00 |
| 51 | 01/29 | 22:00 | 26 | 21 | 83 | 30.25 | S | 3 | 0.00 |
| 52 | 01/29 | 21:00 | 26 | 17 | 69 | 30.27 | SSW | 3 | 0.00 |
| 53 | 01/29 | 20:00 | 26 | 14 | 62 | 30.29 | S | 4 | 0.00 |
| 54 | 01/29 | 19:00 | 26 | 13 | 58 | 30.32 | SSE | 7 | 0.00 |
| 55 | 01/29 | 18:00 | 27 | 13 | 57 | 30.34 | S | 8 | 0.00 |
| 56 | 01/29 | 17:00 | 28 | 11 | 50 | 30.34 | S | 4 | 0.00 |
| 57 | 01/29 | 16:00 | 29 | 9 | 43 | 30.35 | SE | 5 | 0.00 |
| 58 | 01/29 | 15:00 | 30 | 9 | 41 | 30.38 | S | 6 | 0.00 |
| 59 | 01/29 | 14:00 | 31 | 8 | 38 | 30.41 | S | 6 | 0.00 |
| 60 | 01/29 | 13:00 | 29 | 10 | 46 | 30.45 | SSW | 9 | 0.00 |
| 61 | 01/29 | 12:00 | 23 | 10 | 57 | 30.50 | SSW | 3 | 0.00 |
| 62 | miss | miss | miss | miss | miss | miss | miss | miss | |
| 63 | 01/29 | 11:47 | 22 | 9 | 59 | 30.51 | S | 3 | 0.00 |
| 64 | miss | miss | miss | miss | miss | miss | miss | miss | |
| 65 | 01/29 | 11:45 | 22 | 9 | 59 | 30.51 | S | 5 | 0.00 |
| 66 | miss | miss | miss | miss | miss | miss | miss | miss | |
| 67 | 01/29 | 11:43 | 22 | 9 | 59 | 30.51 | S | 2 | 0.00 |
| 68 | miss | miss | miss | miss | miss | miss | miss | miss | |
| 69 | 01/29 | 11:41 | 22 | 9 | 59 | 30.51 | SSE | 3 | 0.00 |
| 70 | miss | miss | miss | miss | miss | miss | miss | miss | |
| 71 | 01/29 | 11:39 | 22 | 10 | 60 | 30.52 | S | 4 | 0.00 |
| 72 | miss | miss | miss | miss | miss | miss | miss | miss | |
| 73 | 01/29 | 11:37 | 21 | 9 | 60 | 30.52 | S | 2 | 0.00 |
| 74 | miss | miss | miss | miss | miss | miss | miss | miss | |
| 75 | 01/29 | 11:37 | 21 | 9 | 60 | 30.52 | S | 2 | 0.00 |
| 76 | miss | miss | miss | miss | miss | miss | miss | miss | |
| 77 | 01/29 | 11:37 | 21 | 9 | 60 | 30.52 | S | 2 | 0.00 |
| 78 | miss | miss | miss | miss | miss | miss | miss | miss | |
| 79 | 01/29 | 11:37 | 21 | 9 | 60 | 30.52 | S | 2 | 0.00 |
| 80 | miss | miss | miss | miss | miss | miss | miss | miss | |
| 81 | 01/29 | 11:37 | 21 | 9 | 60 | 30.52 | S | 2 | 0.00 |
| 82 | miss | miss | miss | miss | miss | miss | miss | miss | |
| 83 | 01/29 | 11:37 | 21 | 9 | 60 | 30.52 | S | 2 | 0.00 |
| 84 | miss | miss | miss | miss | miss | miss | miss | miss | |
| 85 | 01/29 | 11:37 | 21 | 9 | 60 | 30.52 | S | 2 | 0.00 |
| 86 | 01/29 | 11:00 | 19 | 13 | 80 | 30.54 | NNE | 1 | 0.00 |
| 87 | 01/29 | 10:00 | 13 | 12 | 96 | 30.57 | ESE | 0 | 0.00 |
| 88 | 01/29 | 09:00 | 6 | 5 | 96 | 30.60 | NE | 2 | 0.00 |
| 89 | 01/29 | 08:00 | 1 | 0 | 96 | 30.61 | NE | 0 | 0.00 |
| 90 | 01/29 | 07:00 | 1 | 0 | 95 | 30.63 | NW | 1 | 0.00 |
| 91 | 01/29 | 06:00 | 1 | 0 | 94 | 30.64 | NW | 0 | 0.00 |
| 92 | 01/29 | 05:00 | 2 | 0 | 94 | 30.65 | NNW | 1 | 0.00 |
| 93 | 01/29 | 04:00 | 2 | 0 | 93 | 30.66 | SSW | 0 | 0.00 |
| 94 | 01/29 | 03:00 | 3 | 1 | 92 | 30.68 | SSW | 1 | 0.00 |
| 95 | 01/29 | 02:00 | 4 | 1 | 90 | 30.69 | SSW | 1 | 0.00 |
| 96 | 01/29 | 01:00 | 5 | 2 | 89 | 30.70 | SSW | 0 | 0.00 |
| 97 | 01/29 | 00:00 | 6 | 2 | 87 | 30.71 | SSW | 1 | 0.00 |